Portada
METAR-TAF:

METAR-TAF

Aeroports :

Curaçao, Antilles Neerlandeses

latitud: 12-12N, longitud: 068-58W, altitud: 9 m

Observació

L'informe es va fer fa 45 minuts, a les 12:00 UTC
Vent 6 kt del Est/Sud-Est
Temperatura 26°C
Humitat 74%
Pressió 1014 hPa
Visibilitat 10 km o més
Escasses núvols a una alçada de 2000 ft

METAR: TNCC 231200Z 12006KT 9999 FEW020 26/21 Q1014 NOSIG

Hora: 08:45 (12:45 UTC)

Pronòstic

L'informe es va fer fa 1 hora i 30 minuts, a les 11:15 UTC
Pronòstic vàlid del 23 a les 12 UTC al 24 a les 12 UTC
Vent 12 kt del Est
Visibilitat 10 km o més
Escasses núvols a una alçada de 1800 ft

TAF: TNCC 231115Z 2312/2412 10012KT 9999 FEW018

Observacions i pronòstics meteorològics de més de 4000 aeroports (METAR i TAF).

Les estacions disponibles són els punts grocs i vermells al mapa.

Posi el ratolí al punt desitjat per veure el nom de l'estació.

Feu clic per veure les observacions i els pronòstics meteorològics.

Per canviar el mapa: feu clic els botons verds amb una creu de color negre per apropar; al botó verd amb un guió per allunyar la imatge; o en les fletxes verdes per a mapes adjacents.


METAR-TAF: